sensor_id;sensor_type;location;lat;lon;timestamp;P1;durP1;ratioP1;P2;durP2;ratioP2
11807;SDS011;5961;42.640;23.380;2023-09-19T00:00:30;5.60;;;3.63;;
11807;SDS011;5961;42.640;23.380;2023-09-19T00:02:59;7.17;;;3.83;;
11807;SDS011;5961;42.640;23.380;2023-09-19T00:05:27;5.20;;;3.90;;
11807;SDS011;5961;42.640;23.380;2023-09-19T00:07:55;4.47;;;4.00;;
11807;SDS011;5961;42.640;23.380;2023-09-19T00:10:23;5.43;;;4.07;;
11807;SDS011;5961;42.640;23.380;2023-09-19T00:12:52;4.40;;;3.80;;
11807;SDS011;5961;42.640;23.380;2023-09-19T00:15:20;7.70;;;4.20;;
11807;SDS011;5961;42.640;23.380;2023-09-19T00:17:47;4.77;;;4.00;;
11807;SDS011;5961;42.640;23.380;2023-09-19T00:20:14;4.93;;;3.63;;
11807;SDS011;5961;42.640;23.380;2023-09-19T00:22:44;7.67;;;4.03;;
11807;SDS011;5961;42.640;23.380;2023-09-19T00:25:11;5.67;;;4.20;;
11807;SDS011;5961;42.640;23.380;2023-09-19T00:27:40;4.57;;;3.83;;
11807;SDS011;5961;42.640;23.380;2023-09-19T00:30:08;4.80;;;4.23;;
11807;SDS011;5961;42.640;23.380;2023-09-19T00:32:39;4.67;;;3.97;;
11807;SDS011;5961;42.640;23.380;2023-09-19T00:35:07;6.57;;;4.17;;
11807;SDS011;5961;42.640;23.380;2023-09-19T00:37:35;6.17;;;4.10;;
11807;SDS011;5961;42.640;23.380;2023-09-19T00:40:04;5.20;;;4.23;;
11807;SDS011;5961;42.640;23.380;2023-09-19T00:42:32;6.17;;;4.07;;
11807;SDS011;5961;42.640;23.380;2023-09-19T00:45:03;5.87;;;3.93;;
11807;SDS011;5961;42.640;23.380;2023-09-19T00:47:31;4.83;;;3.87;;
11807;SDS011;5961;42.640;23.380;2023-09-19T00:49:58;4.93;;;4.27;;
11807;SDS011;5961;42.640;23.380;2023-09-19T00:52:25;5.23;;;3.90;;
11807;SDS011;5961;42.640;23.380;2023-09-19T00:54:53;5.63;;;4.40;;
11807;SDS011;5961;42.640;23.380;2023-09-19T00:57:22;4.67;;;4.17;;
11807;SDS011;5961;42.640;23.380;2023-09-19T00:59:50;5.23;;;4.17;;
11807;SDS011;5961;42.640;23.380;2023-09-19T01:02:20;6.13;;;4.40;;
11807;SDS011;5961;42.640;23.380;2023-09-19T01:04:47;6.00;;;4.50;;
11807;SDS011;5961;42.640;23.380;2023-09-19T01:07:14;4.50;;;4.10;;
11807;SDS011;5961;42.640;23.380;2023-09-19T01:09:42;5.13;;;4.33;;
11807;SDS011;5961;42.640;23.380;2023-09-19T01:12:09;4.43;;;4.03;;
11807;SDS011;5961;42.640;23.380;2023-09-19T01:14:47;5.07;;;4.40;;
11807;SDS011;5961;42.640;23.380;2023-09-19T01:17:25;8.70;;;4.20;;
11807;SDS011;5961;42.640;23.380;2023-09-19T01:23:00;5.53;;;4.23;;
11807;SDS011;5961;42.640;23.380;2023-09-19T01:28:39;9.37;;;4.60;;
11807;SDS011;5961;42.640;23.380;2023-09-19T01:31:25;5.63;;;4.13;;
11807;SDS011;5961;42.640;23.380;2023-09-19T01:33:59;5.70;;;4.30;;
11807;SDS011;5961;42.640;23.380;2023-09-19T01:36:30;5.73;;;4.90;;
11807;SDS011;5961;42.640;23.380;2023-09-19T01:39:00;5.37;;;4.60;;
11807;SDS011;5961;42.640;23.380;2023-09-19T01:41:35;6.67;;;4.03;;
11807;SDS011;5961;42.640;23.380;2023-09-19T01:44:13;7.93;;;4.50;;
11807;SDS011;5961;42.640;23.380;2023-09-19T01:46:46;7.83;;;4.80;;
11807;SDS011;5961;42.640;23.380;2023-09-19T01:49:16;5.27;;;4.40;;
11807;SDS011;5961;42.640;23.380;2023-09-19T01:52:05;6.13;;;4.80;;
11807;SDS011;5961;42.640;23.380;2023-09-19T01:54:40;5.73;;;4.70;;
11807;SDS011;5961;42.640;23.380;2023-09-19T01:57:14;5.33;;;4.50;;
11807;SDS011;5961;42.640;23.380;2023-09-19T01:59:48;6.17;;;4.73;;
11807;SDS011;5961;42.640;23.380;2023-09-19T02:02:20;8.30;;;4.80;;
11807;SDS011;5961;42.640;23.380;2023-09-19T02:04:48;6.97;;;4.93;;
11807;SDS011;5961;42.640;23.380;2023-09-19T02:07:15;6.53;;;4.83;;
11807;SDS011;5961;42.640;23.380;2023-09-19T02:09:43;5.50;;;4.47;;
11807;SDS011;5961;42.640;23.380;2023-09-19T02:12:09;6.93;;;4.90;;
11807;SDS011;5961;42.640;23.380;2023-09-19T02:14:36;6.47;;;4.60;;
11807;SDS011;5961;42.640;23.380;2023-09-19T02:17:03;5.93;;;4.50;;
11807;SDS011;5961;42.640;23.380;2023-09-19T02:19:37;8.10;;;5.20;;
11807;SDS011;5961;42.640;23.380;2023-09-19T02:22:06;7.33;;;4.80;;
11807;SDS011;5961;42.640;23.380;2023-09-19T02:24:36;5.93;;;4.67;;
11807;SDS011;5961;42.640;23.380;2023-09-19T02:27:03;6.43;;;4.93;;
11807;SDS011;5961;42.640;23.380;2023-09-19T02:29:31;6.60;;;4.77;;
11807;SDS011;5961;42.640;23.380;2023-09-19T02:31:59;7.27;;;4.70;;
11807;SDS011;5961;42.640;23.380;2023-09-19T02:34:26;5.33;;;4.73;;
11807;SDS011;5961;42.640;23.380;2023-09-19T02:36:55;6.43;;;5.00;;
11807;SDS011;5961;42.640;23.380;2023-09-19T02:39:22;5.93;;;4.57;;
11807;SDS011;5961;42.640;23.380;2023-09-19T02:41:49;5.40;;;4.70;;
11807;SDS011;5961;42.640;23.380;2023-09-19T02:44:16;5.13;;;4.57;;
11807;SDS011;5961;42.640;23.380;2023-09-19T02:46:45;5.93;;;5.20;;
11807;SDS011;5961;42.640;23.380;2023-09-19T02:49:12;5.00;;;4.50;;
11807;SDS011;5961;42.640;23.380;2023-09-19T02:51:39;5.90;;;4.50;;
11807;SDS011;5961;42.640;23.380;2023-09-19T02:54:08;5.33;;;4.70;;
11807;SDS011;5961;42.640;23.380;2023-09-19T02:56:35;8.30;;;4.87;;
11807;SDS011;5961;42.640;23.380;2023-09-19T02:59:02;6.17;;;4.80;;
11807;SDS011;5961;42.640;23.380;2023-09-19T03:01:29;6.83;;;4.77;;
11807;SDS011;5961;42.640;23.380;2023-09-19T03:03:56;7.63;;;4.47;;
11807;SDS011;5961;42.640;23.380;2023-09-19T03:06:23;5.53;;;4.93;;
11807;SDS011;5961;42.640;23.380;2023-09-19T03:11:38;6.80;;;5.00;;
11807;SDS011;5961;42.640;23.380;2023-09-19T03:14:07;7.13;;;4.70;;
11807;SDS011;5961;42.640;23.380;2023-09-19T03:16:35;8.83;;;4.60;;
11807;SDS011;5961;42.640;23.380;2023-09-19T03:19:02;6.73;;;5.07;;
11807;SDS011;5961;42.640;23.380;2023-09-19T03:21:30;6.70;;;4.90;;
11807;SDS011;5961;42.640;23.380;2023-09-19T03:23:57;7.37;;;4.87;;
11807;SDS011;5961;42.640;23.380;2023-09-19T03:26:25;6.07;;;4.40;;
11807;SDS011;5961;42.640;23.380;2023-09-19T03:28:52;6.33;;;5.33;;
11807;SDS011;5961;42.640;23.380;2023-09-19T03:31:19;7.23;;;5.20;;
11807;SDS011;5961;42.640;23.380;2023-09-19T03:33:46;7.57;;;5.23;;
11807;SDS011;5961;42.640;23.380;2023-09-19T03:36:13;7.47;;;5.60;;
11807;SDS011;5961;42.640;23.380;2023-09-19T03:38:40;9.20;;;5.97;;
11807;SDS011;5961;42.640;23.380;2023-09-19T03:41:07;10.00;;;5.50;;
11807;SDS011;5961;42.640;23.380;2023-09-19T03:43:35;9.50;;;5.73;;
11807;SDS011;5961;42.640;23.380;2023-09-19T03:46:02;7.67;;;4.87;;
11807;SDS011;5961;42.640;23.380;2023-09-19T03:48:30;11.03;;;5.43;;
11807;SDS011;5961;42.640;23.380;2023-09-19T03:50:57;9.33;;;6.17;;
11807;SDS011;5961;42.640;23.380;2023-09-19T03:53:24;9.70;;;5.90;;
11807;SDS011;5961;42.640;23.380;2023-09-19T03:55:50;8.87;;;5.47;;
11807;SDS011;5961;42.640;23.380;2023-09-19T03:58:17;8.83;;;5.57;;
11807;SDS011;5961;42.640;23.380;2023-09-19T04:00:45;13.53;;;6.47;;
11807;SDS011;5961;42.640;23.380;2023-09-19T04:03:13;10.27;;;7.63;;
11807;SDS011;5961;42.640;23.380;2023-09-19T04:05:44;12.50;;;8.93;;
11807;SDS011;5961;42.640;23.380;2023-09-19T04:08:11;23.17;;;16.70;;
11807;SDS011;5961;42.640;23.380;2023-09-19T04:10:40;17.73;;;10.00;;
11807;SDS011;5961;42.640;23.380;2023-09-19T04:13:08;9.67;;;8.00;;
11807;SDS011;5961;42.640;23.380;2023-09-19T04:15:35;13.27;;;8.13;;
11807;SDS011;5961;42.640;23.380;2023-09-19T04:18:04;23.70;;;16.80;;
11807;SDS011;5961;42.640;23.380;2023-09-19T04:20:31;29.97;;;21.87;;
11807;SDS011;5961;42.640;23.380;2023-09-19T04:22:58;17.30;;;11.57;;
11807;SDS011;5961;42.640;23.380;2023-09-19T04:25:25;12.20;;;9.63;;
11807;SDS011;5961;42.640;23.380;2023-09-19T04:27:53;11.70;;;8.60;;
11807;SDS011;5961;42.640;23.380;2023-09-19T04:30:19;9.97;;;8.10;;
11807;SDS011;5961;42.640;23.380;2023-09-19T04:32:46;14.10;;;7.10;;
11807;SDS011;5961;42.640;23.380;2023-09-19T04:35:17;8.77;;;6.07;;
11807;SDS011;5961;42.640;23.380;2023-09-19T04:37:44;9.17;;;6.13;;
11807;SDS011;5961;42.640;23.380;2023-09-19T04:40:10;7.77;;;6.17;;
11807;SDS011;5961;42.640;23.380;2023-09-19T04:42:39;11.43;;;7.00;;
11807;SDS011;5961;42.640;23.380;2023-09-19T04:45:07;12.00;;;7.10;;
11807;SDS011;5961;42.640;23.380;2023-09-19T04:47:36;12.03;;;9.10;;
11807;SDS011;5961;42.640;23.380;2023-09-19T04:50:05;26.00;;;17.77;;
11807;SDS011;5961;42.640;23.380;2023-09-19T04:52:38;26.03;;;19.93;;
11807;SDS011;5961;42.640;23.380;2023-09-19T04:55:07;14.27;;;9.77;;
11807;SDS011;5961;42.640;23.380;2023-09-19T04:57:35;14.80;;;10.50;;
11807;SDS011;5961;42.640;23.380;2023-09-19T05:00:04;14.20;;;9.53;;
11807;SDS011;5961;42.640;23.380;2023-09-19T05:02:37;14.83;;;7.30;;
11807;SDS011;5961;42.640;23.380;2023-09-19T05:05:05;12.63;;;8.53;;
11807;SDS011;5961;42.640;23.380;2023-09-19T05:07:33;11.87;;;9.00;;
11807;SDS011;5961;42.640;23.380;2023-09-19T05:10:01;16.23;;;11.83;;
11807;SDS011;5961;42.640;23.380;2023-09-19T05:12:30;20.30;;;13.80;;
11807;SDS011;5961;42.640;23.380;2023-09-19T05:14:57;10.87;;;8.30;;
11807;SDS011;5961;42.640;23.380;2023-09-19T05:17:24;13.23;;;8.07;;
11807;SDS011;5961;42.640;23.380;2023-09-19T05:19:51;11.80;;;8.60;;
11807;SDS011;5961;42.640;23.380;2023-09-19T05:22:18;11.73;;;8.13;;
11807;SDS011;5961;42.640;23.380;2023-09-19T05:24:45;15.67;;;7.97;;
11807;SDS011;5961;42.640;23.380;2023-09-19T05:27:14;11.60;;;8.07;;
11807;SDS011;5961;42.640;23.380;2023-09-19T05:29:42;9.13;;;6.70;;
11807;SDS011;5961;42.640;23.380;2023-09-19T05:32:09;9.40;;;5.90;;
11807;SDS011;5961;42.640;23.380;2023-09-19T05:34:36;8.17;;;6.23;;
11807;SDS011;5961;42.640;23.380;2023-09-19T05:37:04;10.20;;;7.50;;
11807;SDS011;5961;42.640;23.380;2023-09-19T05:39:32;8.70;;;6.73;;
11807;SDS011;5961;42.640;23.380;2023-09-19T05:41:59;9.57;;;6.80;;
11807;SDS011;5961;42.640;23.380;2023-09-19T05:44:27;11.63;;;7.30;;
11807;SDS011;5961;42.640;23.380;2023-09-19T05:46:54;9.03;;;7.67;;
11807;SDS011;5961;42.640;23.380;2023-09-19T05:49:23;11.30;;;6.67;;
11807;SDS011;5961;42.640;23.380;2023-09-19T05:51:50;14.53;;;9.20;;
11807;SDS011;5961;42.640;23.380;2023-09-19T05:54:19;11.70;;;6.30;;
11807;SDS011;5961;42.640;23.380;2023-09-19T05:56:46;12.80;;;9.83;;
11807;SDS011;5961;42.640;23.380;2023-09-19T05:59:14;13.17;;;9.40;;
11807;SDS011;5961;42.640;23.380;2023-09-19T06:01:43;8.60;;;7.20;;
11807;SDS011;5961;42.640;23.380;2023-09-19T06:04:09;10.27;;;6.30;;
11807;SDS011;5961;42.640;23.380;2023-09-19T06:06:36;7.17;;;5.00;;
11807;SDS011;5961;42.640;23.380;2023-09-19T06:09:05;9.90;;;6.03;;
11807;SDS011;5961;42.640;23.380;2023-09-19T06:11:33;9.70;;;6.30;;
11807;SDS011;5961;42.640;23.380;2023-09-19T06:14:00;10.00;;;5.90;;
11807;SDS011;5961;42.640;23.380;2023-09-19T06:16:27;10.83;;;7.23;;
11807;SDS011;5961;42.640;23.380;2023-09-19T06:18:55;8.00;;;5.30;;
11807;SDS011;5961;42.640;23.380;2023-09-19T06:21:22;6.30;;;5.00;;
11807;SDS011;5961;42.640;23.380;2023-09-19T06:23:49;7.43;;;5.33;;
11807;SDS011;5961;42.640;23.380;2023-09-19T06:26:16;8.70;;;5.00;;
11807;SDS011;5961;42.640;23.380;2023-09-19T06:28:43;7.40;;;5.27;;
11807;SDS011;5961;42.640;23.380;2023-09-19T06:31:10;10.37;;;6.93;;
11807;SDS011;5961;42.640;23.380;2023-09-19T06:33:38;12.63;;;5.67;;
11807;SDS011;5961;42.640;23.380;2023-09-19T06:36:06;9.03;;;6.13;;
11807;SDS011;5961;42.640;23.380;2023-09-19T06:38:34;8.63;;;5.07;;
11807;SDS011;5961;42.640;23.380;2023-09-19T06:41:02;9.07;;;5.50;;
11807;SDS011;5961;42.640;23.380;2023-09-19T06:43:32;8.00;;;5.33;;
11807;SDS011;5961;42.640;23.380;2023-09-19T06:45:59;9.03;;;6.33;;
11807;SDS011;5961;42.640;23.380;2023-09-19T06:48:26;7.77;;;5.50;;
11807;SDS011;5961;42.640;23.380;2023-09-19T06:50:54;8.07;;;5.03;;
11807;SDS011;5961;42.640;23.380;2023-09-19T06:53:22;8.70;;;5.00;;
11807;SDS011;5961;42.640;23.380;2023-09-19T06:55:49;11.93;;;5.37;;
11807;SDS011;5961;42.640;23.380;2023-09-19T06:58:16;8.20;;;5.40;;
11807;SDS011;5961;42.640;23.380;2023-09-19T07:00:44;7.90;;;5.33;;
11807;SDS011;5961;42.640;23.380;2023-09-19T07:03:13;7.00;;;5.00;;
11807;SDS011;5961;42.640;23.380;2023-09-19T07:05:41;6.97;;;4.87;;
11807;SDS011;5961;42.640;23.380;2023-09-19T07:08:09;6.53;;;5.40;;
11807;SDS011;5961;42.640;23.380;2023-09-19T07:10:38;11.23;;;5.37;;
11807;SDS011;5961;42.640;23.380;2023-09-19T07:13:06;10.33;;;7.10;;
11807;SDS011;5961;42.640;23.380;2023-09-19T07:15:36;9.87;;;6.47;;
11807;SDS011;5961;42.640;23.380;2023-09-19T07:18:11;6.63;;;5.57;;
11807;SDS011;5961;42.640;23.380;2023-09-19T07:20:39;7.03;;;6.00;;
11807;SDS011;5961;42.640;23.380;2023-09-19T07:23:10;10.23;;;6.80;;
11807;SDS011;5961;42.640;23.380;2023-09-19T07:25:40;7.70;;;6.90;;
11807;SDS011;5961;42.640;23.380;2023-09-19T07:28:07;10.80;;;6.33;;
11807;SDS011;5961;42.640;23.380;2023-09-19T07:30:35;10.93;;;7.20;;
11807;SDS011;5961;42.640;23.380;2023-09-19T07:33:04;9.07;;;6.30;;
11807;SDS011;5961;42.640;23.380;2023-09-19T07:35:31;8.10;;;5.93;;
11807;SDS011;5961;42.640;23.380;2023-09-19T07:37:58;9.43;;;7.97;;
11807;SDS011;5961;42.640;23.380;2023-09-19T07:40:26;8.57;;;6.63;;
11807;SDS011;5961;42.640;23.380;2023-09-19T07:42:55;10.40;;;7.20;;
11807;SDS011;5961;42.640;23.380;2023-09-19T07:45:26;11.87;;;9.37;;
11807;SDS011;5961;42.640;23.380;2023-09-19T07:47:55;12.17;;;9.53;;
11807;SDS011;5961;42.640;23.380;2023-09-19T07:50:22;11.40;;;7.30;;
11807;SDS011;5961;42.640;23.380;2023-09-19T07:52:51;11.17;;;6.07;;
11807;SDS011;5961;42.640;23.380;2023-09-19T07:55:20;6.73;;;5.97;;
11807;SDS011;5961;42.640;23.380;2023-09-19T07:57:49;21.67;;;17.67;;
11807;SDS011;5961;42.640;23.380;2023-09-19T08:00:17;18.43;;;10.67;;
11807;SDS011;5961;42.640;23.380;2023-09-19T08:02:44;8.33;;;6.80;;
11807;SDS011;5961;42.640;23.380;2023-09-19T08:05:12;7.90;;;6.70;;
11807;SDS011;5961;42.640;23.380;2023-09-19T08:07:40;10.33;;;6.57;;
11807;SDS011;5961;42.640;23.380;2023-09-19T08:10:09;13.57;;;7.20;;
11807;SDS011;5961;42.640;23.380;2023-09-19T08:12:38;13.60;;;8.27;;
11807;SDS011;5961;42.640;23.380;2023-09-19T08:15:11;14.73;;;6.53;;
11807;SDS011;5961;42.640;23.380;2023-09-19T08:17:40;9.73;;;6.27;;
11807;SDS011;5961;42.640;23.380;2023-09-19T08:20:07;8.67;;;6.20;;
11807;SDS011;5961;42.640;23.380;2023-09-19T08:22:41;12.17;;;9.80;;
11807;SDS011;5961;42.640;23.380;2023-09-19T08:25:11;25.40;;;16.97;;
11807;SDS011;5961;42.640;23.380;2023-09-19T08:27:38;29.97;;;21.40;;
11807;SDS011;5961;42.640;23.380;2023-09-19T08:30:05;10.50;;;7.53;;
11807;SDS011;5961;42.640;23.380;2023-09-19T08:32:33;10.20;;;5.40;;
11807;SDS011;5961;42.640;23.380;2023-09-19T08:35:01;14.27;;;8.67;;
11807;SDS011;5961;42.640;23.380;2023-09-19T08:37:29;13.00;;;7.80;;
11807;SDS011;5961;42.640;23.380;2023-09-19T08:39:56;7.20;;;5.50;;
11807;SDS011;5961;42.640;23.380;2023-09-19T08:42:23;8.60;;;5.30;;
11807;SDS011;5961;42.640;23.380;2023-09-19T08:44:50;4.93;;;4.30;;
11807;SDS011;5961;42.640;23.380;2023-09-19T08:47:24;7.43;;;4.80;;
11807;SDS011;5961;42.640;23.380;2023-09-19T08:50:03;10.33;;;5.17;;
11807;SDS011;5961;42.640;23.380;2023-09-19T08:52:41;5.80;;;5.17;;
11807;SDS011;5961;42.640;23.380;2023-09-19T08:55:10;6.40;;;5.37;;
11807;SDS011;5961;42.640;23.380;2023-09-19T08:57:38;13.33;;;5.10;;
11807;SDS011;5961;42.640;23.380;2023-09-19T09:00:09;7.57;;;4.90;;
11807;SDS011;5961;42.640;23.380;2023-09-19T09:02:40;9.17;;;4.90;;
11807;SDS011;5961;42.640;23.380;2023-09-19T09:05:09;8.03;;;4.20;;
11807;SDS011;5961;42.640;23.380;2023-09-19T09:07:36;8.50;;;4.70;;
11807;SDS011;5961;42.640;23.380;2023-09-19T09:10:05;5.93;;;4.93;;
11807;SDS011;5961;42.640;23.380;2023-09-19T09:12:33;5.68;;;5.10;;
11807;SDS011;5961;42.640;23.380;2023-09-19T09:15:05;8.60;;;5.00;;
11807;SDS011;5961;42.640;23.380;2023-09-19T09:17:34;6.60;;;5.60;;
11807;SDS011;5961;42.640;23.380;2023-09-19T09:20:01;7.68;;;4.93;;
11807;SDS011;5961;42.640;23.380;2023-09-19T09:22:30;7.00;;;6.28;;
11807;SDS011;5961;42.640;23.380;2023-09-19T09:24:57;10.23;;;6.28;;
11807;SDS011;5961;42.640;23.380;2023-09-19T09:27:28;14.77;;;6.60;;
11807;SDS011;5961;42.640;23.380;2023-09-19T09:29:56;7.57;;;5.10;;
11807;SDS011;5961;42.640;23.380;2023-09-19T09:32:24;7.00;;;5.20;;
11807;SDS011;5961;42.640;23.380;2023-09-19T09:34:54;5.82;;;5.25;;
11807;SDS011;5961;42.640;23.380;2023-09-19T09:37:23;6.78;;;4.72;;
11807;SDS011;5961;42.640;23.380;2023-09-19T09:39:54;6.45;;;5.65;;
11807;SDS011;5961;42.640;23.380;2023-09-19T09:42:30;7.43;;;5.43;;
11807;SDS011;5961;42.640;23.380;2023-09-19T09:45:16;7.68;;;5.03;;
11807;SDS011;5961;42.640;23.380;2023-09-19T09:47:53;7.25;;;5.35;;
11807;SDS011;5961;42.640;23.380;2023-09-19T09:50:28;13.25;;;5.40;;
11807;SDS011;5961;42.640;23.380;2023-09-19T09:53:05;6.30;;;4.90;;
11807;SDS011;5961;42.640;23.380;2023-09-19T09:56:03;7.68;;;5.90;;
11807;SDS011;5961;42.640;23.380;2023-09-19T09:58:32;8.38;;;5.10;;
11807;SDS011;5961;42.640;23.380;2023-09-19T10:01:00;5.65;;;5.07;;
11807;SDS011;5961;42.640;23.380;2023-09-19T10:03:34;5.90;;;4.75;;
11807;SDS011;5961;42.640;23.380;2023-09-19T10:06:06;8.68;;;5.07;;
11807;SDS011;5961;42.640;23.380;2023-09-19T10:09:03;11.40;;;5.10;;
11807;SDS011;5961;42.640;23.380;2023-09-19T10:11:40;8.35;;;5.40;;
11807;SDS011;5961;42.640;23.380;2023-09-19T10:14:09;7.82;;;5.20;;
11807;SDS011;5961;42.640;23.380;2023-09-19T10:16:39;10.38;;;4.93;;
11807;SDS011;5961;42.640;23.380;2023-09-19T10:19:10;9.88;;;5.18;;
11807;SDS011;5961;42.640;23.380;2023-09-19T10:21:42;7.10;;;5.30;;
11807;SDS011;5961;42.640;23.380;2023-09-19T10:24:11;9.55;;;5.13;;
11807;SDS011;5961;42.640;23.380;2023-09-19T10:26:42;5.70;;;4.82;;
11807;SDS011;5961;42.640;23.380;2023-09-19T10:29:11;6.90;;;5.30;;
11807;SDS011;5961;42.640;23.380;2023-09-19T10:31:41;9.35;;;5.30;;
11807;SDS011;5961;42.640;23.380;2023-09-19T10:34:12;9.23;;;5.68;;
11807;SDS011;5961;42.640;23.380;2023-09-19T10:36:42;5.13;;;4.63;;
11807;SDS011;5961;42.640;23.380;2023-09-19T10:39:12;10.93;;;5.38;;
11807;SDS011;5961;42.640;23.380;2023-09-19T10:41:45;8.18;;;5.30;;
11807;SDS011;5961;42.640;23.380;2023-09-19T10:44:21;6.05;;;5.00;;
11807;SDS011;5961;42.640;23.380;2023-09-19T10:46:50;6.70;;;5.20;;
11807;SDS011;5961;42.640;23.380;2023-09-19T10:49:19;7.95;;;4.90;;
11807;SDS011;5961;42.640;23.380;2023-09-19T10:51:46;9.02;;;4.75;;
11807;SDS011;5961;42.640;23.380;2023-09-19T10:54:16;9.15;;;4.85;;
11807;SDS011;5961;42.640;23.380;2023-09-19T10:56:48;7.90;;;5.38;;
11807;SDS011;5961;42.640;23.380;2023-09-19T10:59:17;8.23;;;5.28;;
11807;SDS011;5961;42.640;23.380;2023-09-19T11:01:46;8.82;;;5.05;;
11807;SDS011;5961;42.640;23.380;2023-09-19T11:04:26;5.53;;;4.97;;
11807;SDS011;5961;42.640;23.380;2023-09-19T11:07:02;6.53;;;5.30;;
11807;SDS011;5961;42.640;23.380;2023-09-19T11:09:43;7.20;;;4.90;;
11807;SDS011;5961;42.640;23.380;2023-09-19T11:12:13;6.97;;;5.13;;
11807;SDS011;5961;42.640;23.380;2023-09-19T11:21:45;5.47;;;4.93;;
11807;SDS011;5961;42.640;23.380;2023-09-19T11:24:32;6.35;;;4.93;;
11807;SDS011;5961;42.640;23.380;2023-09-19T11:27:09;6.88;;;4.72;;
11807;SDS011;5961;42.640;23.380;2023-09-19T11:29:43;6.38;;;5.03;;
11807;SDS011;5961;42.640;23.380;2023-09-19T11:32:10;8.30;;;5.50;;
11807;SDS011;5961;42.640;23.380;2023-09-19T11:34:40;8.55;;;5.50;;
11807;SDS011;5961;42.640;23.380;2023-09-19T11:40:27;10.52;;;5.53;;
11807;SDS011;5961;42.640;23.380;2023-09-19T11:42:57;9.30;;;6.63;;
11807;SDS011;5961;42.640;23.380;2023-09-19T11:48:30;6.85;;;4.40;;
11807;SDS011;5961;42.640;23.380;2023-09-19T11:50:58;5.80;;;5.22;;
11807;SDS011;5961;42.640;23.380;2023-09-19T11:53:32;7.80;;;4.88;;
11807;SDS011;5961;42.640;23.380;2023-09-19T11:56:01;7.28;;;5.88;;
11807;SDS011;5961;42.640;23.380;2023-09-19T11:58:33;7.20;;;5.43;;
11807;SDS011;5961;42.640;23.380;2023-09-19T12:01:01;7.78;;;5.32;;
11807;SDS011;5961;42.640;23.380;2023-09-19T12:03:33;6.70;;;4.88;;
11807;SDS011;5961;42.640;23.380;2023-09-19T12:06:10;7.80;;;5.45;;
11807;SDS011;5961;42.640;23.380;2023-09-19T12:08:39;6.70;;;4.97;;
11807;SDS011;5961;42.640;23.380;2023-09-19T12:11:08;8.07;;;5.22;;
11807;SDS011;5961;42.640;23.380;2023-09-19T12:13:42;13.07;;;5.78;;
11807;SDS011;5961;42.640;23.380;2023-09-19T12:16:11;13.30;;;7.85;;
11807;SDS011;5961;42.640;23.380;2023-09-19T12:18:42;13.77;;;10.30;;
11807;SDS011;5961;42.640;23.380;2023-09-19T12:21:21;7.93;;;5.85;;
11807;SDS011;5961;42.640;23.380;2023-09-19T12:23:56;11.23;;;6.95;;
11807;SDS011;5961;42.640;23.380;2023-09-19T12:26:25;7.72;;;6.50;;
11807;SDS011;5961;42.640;23.380;2023-09-19T12:28:55;7.20;;;5.57;;
11807;SDS011;5961;42.640;23.380;2023-09-19T12:31:22;8.98;;;6.03;;
11807;SDS011;5961;42.640;23.380;2023-09-19T12:33:54;7.25;;;5.63;;
11807;SDS011;5961;42.640;23.380;2023-09-19T12:36:21;6.00;;;5.03;;
11807;SDS011;5961;42.640;23.380;2023-09-19T12:38:54;12.25;;;4.97;;
11807;SDS011;5961;42.640;23.380;2023-09-19T12:41:24;7.38;;;6.03;;
11807;SDS011;5961;42.640;23.380;2023-09-19T12:43:52;7.20;;;6.35;;
11807;SDS011;5961;42.640;23.380;2023-09-19T12:46:21;7.25;;;6.43;;
11807;SDS011;5961;42.640;23.380;2023-09-19T12:48:51;10.23;;;5.78;;
11807;SDS011;5961;42.640;23.380;2023-09-19T12:51:42;11.80;;;7.63;;
11807;SDS011;5961;42.640;23.380;2023-09-19T12:54:09;8.02;;;4.47;;
11807;SDS011;5961;42.640;23.380;2023-09-19T12:56:39;7.25;;;5.10;;
11807;SDS011;5961;42.640;23.380;2023-09-19T12:59:09;6.07;;;4.97;;
11807;SDS011;5961;42.640;23.380;2023-09-19T13:01:40;6.60;;;5.60;;
11807;SDS011;5961;42.640;23.380;2023-09-19T13:04:14;9.85;;;6.15;;
11807;SDS011;5961;42.640;23.380;2023-09-19T13:06:44;7.82;;;5.60;;
11807;SDS011;5961;42.640;23.380;2023-09-19T13:09:13;10.07;;;7.07;;
11807;SDS011;5961;42.640;23.380;2023-09-19T13:11:41;8.55;;;6.13;;
11807;SDS011;5961;42.640;23.380;2023-09-19T13:14:14;8.27;;;6.22;;
11807;SDS011;5961;42.640;23.380;2023-09-19T13:16:56;8.50;;;5.70;;
11807;SDS011;5961;42.640;23.380;2023-09-19T13:19:34;7.53;;;6.78;;
11807;SDS011;5961;42.640;23.380;2023-09-19T13:25:03;7.05;;;4.65;;
11807;SDS011;5961;42.640;23.380;2023-09-19T13:27:31;11.73;;;7.65;;
11807;SDS011;5961;42.640;23.380;2023-09-19T13:29:58;7.90;;;5.07;;
11807;SDS011;5961;42.640;23.380;2023-09-19T13:32:27;7.90;;;6.20;;
11807;SDS011;5961;42.640;23.380;2023-09-19T13:34:53;8.23;;;5.32;;
11807;SDS011;5961;42.640;23.380;2023-09-19T13:37:20;7.03;;;4.80;;
11807;SDS011;5961;42.640;23.380;2023-09-19T13:39:47;5.93;;;5.32;;
11807;SDS011;5961;42.640;23.380;2023-09-19T13:42:14;7.25;;;6.05;;
11807;SDS011;5961;42.640;23.380;2023-09-19T13:44:41;7.65;;;5.35;;
11807;SDS011;5961;42.640;23.380;2023-09-19T13:47:08;10.05;;;5.50;;
11807;SDS011;5961;42.640;23.380;2023-09-19T13:49:39;8.10;;;7.20;;
11807;SDS011;5961;42.640;23.380;2023-09-19T13:52:07;7.07;;;5.07;;
11807;SDS011;5961;42.640;23.380;2023-09-19T13:54:35;5.90;;;5.32;;
11807;SDS011;5961;42.640;23.380;2023-09-19T13:57:02;9.45;;;5.85;;
11807;SDS011;5961;42.640;23.380;2023-09-19T13:59:30;6.20;;;5.20;;
11807;SDS011;5961;42.640;23.380;2023-09-19T14:01:57;8.18;;;5.50;;
11807;SDS011;5961;42.640;23.380;2023-09-19T14:04:23;8.38;;;6.05;;
11807;SDS011;5961;42.640;23.380;2023-09-19T14:06:51;6.80;;;5.55;;
11807;SDS011;5961;42.640;23.380;2023-09-19T14:09:18;7.82;;;5.80;;
11807;SDS011;5961;42.640;23.380;2023-09-19T14:11:46;6.80;;;6.07;;
11807;SDS011;5961;42.640;23.380;2023-09-19T14:14:13;9.93;;;6.65;;
11807;SDS011;5961;42.640;23.380;2023-09-19T14:16:39;11.55;;;6.65;;
11807;SDS011;5961;42.640;23.380;2023-09-19T14:19:07;6.20;;;5.22;;
11807;SDS011;5961;42.640;23.380;2023-09-19T14:21:34;6.55;;;5.57;;
11807;SDS011;5961;42.640;23.380;2023-09-19T14:24:03;15.13;;;9.00;;
11807;SDS011;5961;42.640;23.380;2023-09-19T14:26:31;11.88;;;8.23;;
11807;SDS011;5961;42.640;23.380;2023-09-19T14:28:58;8.68;;;7.78;;
11807;SDS011;5961;42.640;23.380;2023-09-19T14:31:25;9.50;;;6.65;;
11807;SDS011;5961;42.640;23.380;2023-09-19T14:33:53;10.98;;;5.75;;
11807;SDS011;5961;42.640;23.380;2023-09-19T14:36:21;8.80;;;6.60;;
11807;SDS011;5961;42.640;23.380;2023-09-19T14:38:51;7.78;;;5.65;;
11807;SDS011;5961;42.640;23.380;2023-09-19T14:41:21;6.97;;;5.30;;
11807;SDS011;5961;42.640;23.380;2023-09-19T14:43:50;5.38;;;4.88;;
11807;SDS011;5961;42.640;23.380;2023-09-19T14:46:18;7.38;;;5.32;;
11807;SDS011;5961;42.640;23.380;2023-09-19T14:48:44;7.40;;;6.18;;
11807;SDS011;5961;42.640;23.380;2023-09-19T14:51:13;9.73;;;6.80;;
11807;SDS011;5961;42.640;23.380;2023-09-19T14:53:40;12.90;;;6.22;;
11807;SDS011;5961;42.640;23.380;2023-09-19T14:56:08;8.63;;;6.43;;
11807;SDS011;5961;42.640;23.380;2023-09-19T14:58:37;6.72;;;5.40;;
11807;SDS011;5961;42.640;23.380;2023-09-19T15:01:05;7.70;;;6.40;;
11807;SDS011;5961;42.640;23.380;2023-09-19T15:03:33;10.38;;;6.72;;
11807;SDS011;5961;42.640;23.380;2023-09-19T15:06:01;10.85;;;8.43;;
11807;SDS011;5961;42.640;23.380;2023-09-19T15:08:29;8.98;;;5.30;;
11807;SDS011;5961;42.640;23.380;2023-09-19T15:10:56;10.27;;;7.03;;
11807;SDS011;5961;42.640;23.380;2023-09-19T15:13:28;10.00;;;6.35;;
11807;SDS011;5961;42.640;23.380;2023-09-19T15:15:59;11.45;;;9.63;;
11807;SDS011;5961;42.640;23.380;2023-09-19T15:18:27;16.73;;;12.30;;
11807;SDS011;5961;42.640;23.380;2023-09-19T15:20:55;13.77;;;10.98;;